BHS325 MYNN-MYGF
Flight info
| Callsign | BHS325 |
|---|---|
| Flight time | 0h 33m |
| Altitude | 14000 |
| Route | PEACH BR65V ZFP |
| Aircraft | AT76/M-SDFGIRY/S |
Departure
| Time | 2026-04-22 23:02 |
|---|---|
| Airport | Lynden Pindling International Airport (MYNN) |
Arrival
| Time | 2026-04-22 23:35 |
|---|---|
| Airport | Grand Bahama International Airport (MYGF) |
| Time | Latitude | Longitude | Altitude | Speed | Heading |
|---|---|---|---|---|---|
| 2026-04-22 22:37 | 25.04797 | -77.46538 | 13 ft | 0 kts | 178° |
| 2026-04-22 22:58 | 25.04796 | -77.46540 | 13 ft | 1 kts | 199° |
| 2026-04-22 22:58 | 25.04801 | -77.46615 | 13 ft | 15 kts | 272° |
| 2026-04-22 22:59 | 25.04744 | -77.46702 | 14 ft | 14 kts | 224° |
| 2026-04-22 22:59 | 25.04709 | -77.46782 | 16 ft | 16 kts | 294° |
| 2026-04-22 22:59 | 25.04836 | -77.46923 | 15 ft | 26 kts | 313° |
| 2026-04-22 22:59 | 25.04953 | -77.47055 | 16 ft | 22 kts | 314° |
| 2026-04-22 23:00 | 25.05051 | -77.47166 | 15 ft | 19 kts | 316° |
| 2026-04-22 23:00 | 25.05138 | -77.47264 | 14 ft | 17 kts | 315° |
| 2026-04-22 23:00 | 25.05214 | -77.47358 | 15 ft | 16 kts | 294° |
| 2026-04-22 23:00 | 25.05207 | -77.47460 | 16 ft | 13 kts | 251° |
| 2026-04-22 23:01 | 25.05161 | -77.47531 | 18 ft | 10 kts | 194° |
| 2026-04-22 23:01 | 25.05056 | -77.47430 | 16 ft | 47 kts | 134° |
| 2026-04-22 23:01 | 25.04691 | -77.47024 | 19 ft | 101 kts | 135° |
| 2026-04-22 23:01 | 25.04103 | -77.46392 | 183 ft | 126 kts | 137° |
| 2026-04-22 23:02 | 25.03443 | -77.45756 | 724 ft | 125 kts | 136° |
| 2026-04-22 23:02 | 25.03004 | -77.44967 | 1208 ft | 123 kts | 95° |
| 2026-04-22 23:02 | 25.03446 | -77.44106 | 1224 ft | 154 kts | 32° |
| 2026-04-22 23:02 | 25.04582 | -77.44052 | 1358 ft | 180 kts | 340° |
| 2026-04-22 23:03 | 25.05619 | -77.44849 | 1673 ft | 184 kts | 324° |
| 2026-04-22 23:03 | 25.06601 | -77.45770 | 2055 ft | 185 kts | 322° |
| 2026-04-22 23:03 | 25.07576 | -77.46698 | 2427 ft | 185 kts | 323° |
| 2026-04-22 23:03 | 25.08545 | -77.47600 | 2789 ft | 185 kts | 326° |
| 2026-04-22 23:04 | 25.09546 | -77.48478 | 3170 ft | 184 kts | 328° |
| 2026-04-22 23:04 | 25.10580 | -77.49338 | 3534 ft | 184 kts | 329° |
| 2026-04-22 23:04 | 25.11611 | -77.50183 | 3892 ft | 185 kts | 328° |
| 2026-04-22 23:04 | 25.12637 | -77.51021 | 4238 ft | 186 kts | 328° |
| 2026-04-22 23:05 | 25.13697 | -77.51884 | 4594 ft | 188 kts | 328° |
| 2026-04-22 23:05 | 25.14752 | -77.52736 | 4949 ft | 189 kts | 328° |
| 2026-04-22 23:05 | 25.15811 | -77.53601 | 5305 ft | 190 kts | 327° |
| 2026-04-22 23:05 | 25.16860 | -77.54462 | 5632 ft | 191 kts | 327° |
| 2026-04-22 23:06 | 25.17926 | -77.55339 | 5966 ft | 192 kts | 327° |
| 2026-04-22 23:06 | 25.18996 | -77.56220 | 6289 ft | 193 kts | 327° |
| 2026-04-22 23:06 | 25.20085 | -77.57125 | 6619 ft | 194 kts | 326° |
| 2026-04-22 23:06 | 25.21164 | -77.58018 | 6943 ft | 194 kts | 326° |
| 2026-04-22 23:07 | 25.22234 | -77.58902 | 7250 ft | 195 kts | 326° |
| 2026-04-22 23:07 | 25.23322 | -77.59801 | 7551 ft | 196 kts | 326° |
| 2026-04-22 23:07 | 25.24418 | -77.60710 | 7839 ft | 197 kts | 326° |
| 2026-04-22 23:07 | 25.25518 | -77.61619 | 8134 ft | 198 kts | 326° |
| 2026-04-22 23:08 | 25.26622 | -77.62531 | 8421 ft | 199 kts | 326° |
| 2026-04-22 23:08 | 25.27733 | -77.63447 | 8705 ft | 200 kts | 326° |
| 2026-04-22 23:08 | 25.28849 | -77.64369 | 8982 ft | 200 kts | 326° |
| 2026-04-22 23:08 | 25.29969 | -77.65295 | 9250 ft | 201 kts | 326° |
| 2026-04-22 23:09 | 25.31093 | -77.66220 | 9517 ft | 201 kts | 326° |
| 2026-04-22 23:09 | 25.32215 | -77.67148 | 9789 ft | 202 kts | 326° |
| 2026-04-22 23:09 | 25.33342 | -77.68079 | 10055 ft | 202 kts | 325° |
| 2026-04-22 23:09 | 25.34466 | -77.69008 | 10317 ft | 202 kts | 325° |
| 2026-04-22 23:10 | 25.35577 | -77.69930 | 10559 ft | 203 kts | 324° |
| 2026-04-22 23:10 | 25.36702 | -77.70863 | 10815 ft | 203 kts | 324° |
| 2026-04-22 23:10 | 25.37834 | -77.71803 | 11066 ft | 203 kts | 324° |
| 2026-04-22 23:10 | 25.38967 | -77.72744 | 11299 ft | 204 kts | 323° |
| 2026-04-22 23:11 | 25.40103 | -77.73686 | 11547 ft | 204 kts | 323° |
| 2026-04-22 23:11 | 25.41240 | -77.74628 | 11787 ft | 204 kts | 323° |
| 2026-04-22 23:11 | 25.42378 | -77.75573 | 12030 ft | 204 kts | 323° |
| 2026-04-22 23:11 | 25.43517 | -77.76517 | 12259 ft | 205 kts | 323° |
| 2026-04-22 23:12 | 25.44657 | -77.77461 | 12473 ft | 205 kts | 322° |
| 2026-04-22 23:12 | 25.45800 | -77.78411 | 12683 ft | 206 kts | 322° |
| 2026-04-22 23:12 | 25.46947 | -77.79361 | 12899 ft | 206 kts | 322° |
| 2026-04-22 23:12 | 25.48077 | -77.80298 | 13111 ft | 206 kts | 322° |
| 2026-04-22 23:13 | 25.49226 | -77.81252 | 13316 ft | 206 kts | 322° |
| 2026-04-22 23:13 | 25.50378 | -77.82210 | 13507 ft | 207 kts | 322° |
| 2026-04-22 23:13 | 25.51532 | -77.83172 | 13708 ft | 208 kts | 321° |
| 2026-04-22 23:13 | 25.52690 | -77.84137 | 13867 ft | 210 kts | 321° |
| 2026-04-22 23:14 | 25.53879 | -77.85123 | 13941 ft | 216 kts | 321° |
| 2026-04-22 23:14 | 25.55105 | -77.86133 | 13971 ft | 223 kts | 322° |
| 2026-04-22 23:14 | 25.56372 | -77.87170 | 13986 ft | 229 kts | 322° |
| 2026-04-22 23:14 | 25.57673 | -77.88237 | 13995 ft | 235 kts | 322° |
| 2026-04-22 23:15 | 25.59001 | -77.89331 | 13996 ft | 240 kts | 322° |
| 2026-04-22 23:15 | 25.60348 | -77.90443 | 13997 ft | 244 kts | 322° |
| 2026-04-22 23:15 | 25.61716 | -77.91575 | 13997 ft | 247 kts | 322° |
| 2026-04-22 23:15 | 25.63102 | -77.92721 | 13999 ft | 249 kts | 322° |
| 2026-04-22 23:16 | 25.64495 | -77.93871 | 13999 ft | 251 kts | 322° |
| 2026-04-22 23:16 | 25.65906 | -77.95035 | 14000 ft | 252 kts | 322° |
| 2026-04-22 23:16 | 25.67316 | -77.96199 | 13996 ft | 253 kts | 322° |
| 2026-04-22 23:16 | 25.68730 | -77.97370 | 13997 ft | 254 kts | 322° |
| 2026-04-22 23:17 | 25.70153 | -77.98546 | 13999 ft | 255 kts | 322° |
| 2026-04-22 23:17 | 25.71559 | -77.99707 | 14004 ft | 256 kts | 322° |
| 2026-04-22 23:17 | 25.72989 | -78.00891 | 14001 ft | 256 kts | 322° |
| 2026-04-22 23:17 | 25.74419 | -78.02075 | 13998 ft | 257 kts | 322° |
| 2026-04-22 23:18 | 25.75852 | -78.03261 | 14002 ft | 257 kts | 322° |
| 2026-04-22 23:18 | 25.77289 | -78.04450 | 14005 ft | 258 kts | 322° |
| 2026-04-22 23:18 | 25.78728 | -78.05640 | 13998 ft | 258 kts | 322° |
| 2026-04-22 23:18 | 25.80166 | -78.06832 | 13998 ft | 258 kts | 322° |
| 2026-04-22 23:19 | 25.81605 | -78.08022 | 14000 ft | 258 kts | 322° |
| 2026-04-22 23:19 | 25.83043 | -78.09217 | 13998 ft | 258 kts | 322° |
| 2026-04-22 23:19 | 25.84485 | -78.10414 | 14006 ft | 258 kts | 322° |
| 2026-04-22 23:19 | 25.85927 | -78.11608 | 14005 ft | 259 kts | 322° |
| 2026-04-22 23:20 | 25.87364 | -78.12802 | 14004 ft | 258 kts | 322° |
| 2026-04-22 23:20 | 25.88806 | -78.13999 | 13998 ft | 258 kts | 322° |
| 2026-04-22 23:20 | 25.90228 | -78.15180 | 13998 ft | 259 kts | 322° |
| 2026-04-22 23:20 | 25.91689 | -78.16392 | 13998 ft | 259 kts | 322° |
| 2026-04-22 23:21 | 25.93112 | -78.17572 | 13998 ft | 259 kts | 322° |
| 2026-04-22 23:21 | 25.94554 | -78.18768 | 13916 ft | 262 kts | 322° |
| 2026-04-22 23:21 | 25.96050 | -78.20011 | 13540 ft | 275 kts | 322° |
| 2026-04-22 23:21 | 25.97604 | -78.21308 | 13167 ft | 284 kts | 322° |
| 2026-04-22 23:22 | 25.99211 | -78.22648 | 12792 ft | 291 kts | 322° |
| 2026-04-22 23:22 | 26.00846 | -78.24005 | 12417 ft | 293 kts | 323° |
| 2026-04-22 23:22 | 26.02469 | -78.25346 | 12040 ft | 289 kts | 323° |
| 2026-04-22 23:22 | 26.04070 | -78.26682 | 11663 ft | 288 kts | 323° |
| 2026-04-22 23:23 | 26.05673 | -78.28024 | 11286 ft | 287 kts | 323° |
| 2026-04-22 23:23 | 26.07203 | -78.29298 | 10908 ft | 261 kts | 323° |
| 2026-04-22 23:23 | 26.08592 | -78.30460 | 10526 ft | 240 kts | 324° |
| 2026-04-22 23:23 | 26.09878 | -78.31552 | 10146 ft | 226 kts | 324° |
| 2026-04-22 23:24 | 26.11098 | -78.32586 | 9765 ft | 216 kts | 326° |
| 2026-04-22 23:24 | 26.12291 | -78.33580 | 9431 ft | 217 kts | 326° |
| 2026-04-22 23:24 | 26.13553 | -78.34630 | 9157 ft | 235 kts | 327° |
| 2026-04-22 23:24 | 26.14885 | -78.35736 | 8889 ft | 247 kts | 326° |
| 2026-04-22 23:25 | 26.16308 | -78.36921 | 8614 ft | 256 kts | 326° |
| 2026-04-22 23:25 | 26.17741 | -78.38139 | 8339 ft | 262 kts | 322° |
| 2026-04-22 23:25 | 26.18989 | -78.39647 | 8066 ft | 267 kts | 312° |
| 2026-04-22 23:25 | 26.20157 | -78.41236 | 7818 ft | 271 kts | 312° |
| 2026-04-22 23:26 | 26.21374 | -78.42848 | 7562 ft | 273 kts | 314° |
| 2026-04-22 23:26 | 26.22638 | -78.44407 | 7305 ft | 266 kts | 315° |
| 2026-04-22 23:26 | 26.23883 | -78.45884 | 7053 ft | 258 kts | 315° |
| 2026-04-22 23:26 | 26.25084 | -78.47328 | 6813 ft | 250 kts | 315° |
| 2026-04-22 23:27 | 26.26256 | -78.48741 | 6577 ft | 245 kts | 315° |
| 2026-04-22 23:27 | 26.27401 | -78.50122 | 6345 ft | 240 kts | 315° |
| 2026-04-22 23:27 | 26.28525 | -78.51477 | 6120 ft | 236 kts | 315° |
| 2026-04-22 23:27 | 26.29635 | -78.52816 | 5898 ft | 233 kts | 315° |
| 2026-04-22 23:28 | 26.30732 | -78.54140 | 5675 ft | 234 kts | 315° |
| 2026-04-22 23:28 | 26.31849 | -78.55492 | 5457 ft | 239 kts | 315° |
| 2026-04-22 23:28 | 26.32967 | -78.56835 | 5235 ft | 234 kts | 315° |
| 2026-04-22 23:28 | 26.34072 | -78.58175 | 5011 ft | 235 kts | 315° |
| 2026-04-22 23:29 | 26.35167 | -78.59497 | 4795 ft | 235 kts | 315° |
| 2026-04-22 23:29 | 26.36289 | -78.60854 | 4570 ft | 236 kts | 315° |
| 2026-04-22 23:29 | 26.37402 | -78.62201 | 4341 ft | 236 kts | 316° |
| 2026-04-22 23:29 | 26.38519 | -78.63550 | 4129 ft | 237 kts | 315° |
| 2026-04-22 23:30 | 26.39636 | -78.64902 | 3901 ft | 237 kts | 315° |
| 2026-04-22 23:30 | 26.40717 | -78.66211 | 3682 ft | 220 kts | 316° |
| 2026-04-22 23:30 | 26.41707 | -78.67412 | 3479 ft | 201 kts | 316° |
| 2026-04-22 23:30 | 26.42624 | -78.68518 | 3293 ft | 188 kts | 316° |
| 2026-04-22 23:31 | 26.43490 | -78.69568 | 3117 ft | 185 kts | 317° |
| 2026-04-22 23:31 | 26.44389 | -78.70654 | 2945 ft | 196 kts | 317° |
| 2026-04-22 23:31 | 26.45315 | -78.71768 | 2765 ft | 198 kts | 316° |
| 2026-04-22 23:31 | 26.46259 | -78.72897 | 2578 ft | 199 kts | 316° |
| 2026-04-22 23:32 | 26.47214 | -78.74034 | 2392 ft | 201 kts | 316° |
| 2026-04-22 23:32 | 26.48115 | -78.75110 | 2224 ft | 182 kts | 316° |
| 2026-04-22 23:32 | 26.48942 | -78.76101 | 2053 ft | 169 kts | 316° |
| 2026-04-22 23:32 | 26.49764 | -78.77016 | 1797 ft | 165 kts | 329° |
| 2026-04-22 23:33 | 26.50801 | -78.77184 | 1528 ft | 146 kts | 24° |
| 2026-04-22 23:33 | 26.51583 | -78.76600 | 1335 ft | 125 kts | 42° |
| 2026-04-22 23:33 | 26.52187 | -78.75989 | 1131 ft | 111 kts | 46° |
| 2026-04-22 23:33 | 26.52733 | -78.75377 | 944 ft | 113 kts | 48° |
| 2026-04-22 23:34 | 26.53244 | -78.74714 | 822 ft | 111 kts | 58° |
| 2026-04-22 23:34 | 26.53661 | -78.73975 | 652 ft | 113 kts | 61° |
| 2026-04-22 23:34 | 26.54038 | -78.73212 | 484 ft | 111 kts | 63° |
| 2026-04-22 23:34 | 26.54403 | -78.72457 | 327 ft | 110 kts | 62° |
| 2026-04-22 23:35 | 26.54775 | -78.71717 | 171 ft | 109 kts | 62° |
| 2026-04-22 23:35 | 26.55145 | -78.70999 | 52 ft | 104 kts | 62° |
| 2026-04-22 23:35 | 26.55482 | -78.70325 | 23 ft | 95 kts | 61° |
| 2026-04-22 23:35 | 26.55730 | -78.69829 | 19 ft | 36 kts | 62° |
| 2026-04-22 23:36 | 26.55826 | -78.69642 | 21 ft | 22 kts | 62° |
| 2026-04-22 23:36 | 26.55880 | -78.69509 | 20 ft | 16 kts | 83° |
| 2026-04-22 23:36 | 26.55831 | -78.69431 | 21 ft | 12 kts | 169° |
| 2026-04-22 23:36 | 26.55729 | -78.69501 | 21 ft | 27 kts | 220° |
| 2026-04-22 23:37 | 26.55602 | -78.69623 | 20 ft | 22 kts | 222° |
| 2026-04-22 23:37 | 26.55497 | -78.69726 | 20 ft | 19 kts | 220° |
| 2026-04-22 23:37 | 26.55391 | -78.69829 | 20 ft | 25 kts | 221° |
| 2026-04-22 23:37 | 26.55286 | -78.69931 | 20 ft | 17 kts | 221° |
| 2026-04-22 23:38 | 26.55200 | -78.70014 | 23 ft | 16 kts | 220° |
| 2026-04-22 23:38 | 26.55108 | -78.70104 | 21 ft | 18 kts | 221° |
| 2026-04-22 23:38 | 26.55018 | -78.70190 | 21 ft | 16 kts | 220° |
| 2026-04-22 23:38 | 26.54959 | -78.70250 | 21 ft | 3 kts | 208° |
| 2026-04-22 23:39 | 26.54933 | -78.70243 | 21 ft | 5 kts | 161° |
| 2026-04-22 23:39 | 26.54916 | -78.70220 | 21 ft | 7 kts | 105° |
| 2026-04-22 23:39 | 26.54913 | -78.70202 | 21 ft | 2 kts | 78° |
| 2026-04-22 23:39 | 26.54914 | -78.70190 | 21 ft | 0 kts | 91° |
| 2026-04-22 23:40 | 26.54914 | -78.70189 | 21 ft | 0 kts | 91° |
| 2026-04-22 23:40 | 26.54914 | -78.70167 | 23 ft | 7 kts | 90° |
| 2026-04-22 23:40 | 26.54912 | -78.70106 | 21 ft | 21 kts | 92° |
| 2026-04-22 23:41 | 26.54909 | -78.69901 | 21 ft | 25 kts | 90° |
| 2026-04-22 23:41 | 26.54907 | -78.69760 | 21 ft | 13 kts | 92° |
| 2026-04-22 23:41 | 26.54898 | -78.69691 | 23 ft | 7 kts | 108° |
| 2026-04-22 23:41 | 26.54896 | -78.69682 | 21 ft | 2 kts | 100° |
| 2026-04-22 23:42 | 26.54895 | -78.69657 | 21 ft | 0 kts | 93° |
| 2026-04-22 23:42 | 26.54892 | -78.69656 | 21 ft | 2 kts | 140° |
| 2026-04-22 23:42 | 26.54871 | -78.69655 | 21 ft | 2 kts | 152° |
| 2026-04-22 23:42 | 26.54870 | -78.69646 | 21 ft | 0 kts | 91° |
| 2026-04-22 23:44 | 26.54867 | -78.69634 | 21 ft | 0 kts | 262° |